sensor_id;sensor_type;location;lat;lon;timestamp;pressure;altitude;pressure_sealevel;temperature;humidity
28310;BME280;15571;50.974;13.936;2022-12-07T00:00:06;99899.75;;;3.73;100.00
28310;BME280;15571;50.974;13.936;2022-12-07T00:03:08;99902.34;;;3.73;100.00
28310;BME280;15571;50.974;13.936;2022-12-07T00:06:11;99905.78;;;3.72;100.00
28310;BME280;15571;50.974;13.936;2022-12-07T00:09:15;99892.88;;;3.75;100.00
28310;BME280;15571;50.974;13.936;2022-12-07T00:12:17;99898.06;;;3.75;100.00
28310;BME280;15571;50.974;13.936;2022-12-07T00:15:20;99898.91;;;3.74;100.00
28310;BME280;15571;50.974;13.936;2022-12-07T00:18:22;99899.66;;;3.68;100.00
28310;BME280;15571;50.974;13.936;2022-12-07T00:21:24;99891.94;;;3.70;100.00
28310;BME280;15571;50.974;13.936;2022-12-07T00:24:28;99897.13;;;3.70;100.00
28310;BME280;15571;50.974;13.936;2022-12-07T00:27:33;99888.50;;;3.71;100.00
28310;BME280;15571;50.974;13.936;2022-12-07T00:30:35;99890.25;;;3.72;100.00
28310;BME280;15571;50.974;13.936;2022-12-07T00:33:37;99885.94;;;3.72;100.00
28310;BME280;15571;50.974;13.936;2022-12-07T00:36:42;99897.16;;;3.73;100.00
28310;BME280;15571;50.974;13.936;2022-12-07T00:39:47;99884.22;;;3.73;100.00
28310;BME280;15571;50.974;13.936;2022-12-07T00:42:49;99879.91;;;3.72;100.00
28310;BME280;15571;50.974;13.936;2022-12-07T00:45:51;99880.75;;;3.72;100.00
28310;BME280;15571;50.974;13.936;2022-12-07T00:48:55;99876.44;;;3.73;100.00
28310;BME280;15571;50.974;13.936;2022-12-07T00:51:58;99884.19;;;3.71;100.00
28310;BME280;15571;50.974;13.936;2022-12-07T00:55:02;99876.41;;;3.70;100.00
28310;BME280;15571;50.974;13.936;2022-12-07T00:58:10;99884.19;;;3.71;100.00
28310;BME280;15571;50.974;13.936;2022-12-07T01:01:12;99880.75;;;3.71;100.00
28310;BME280;15571;50.974;13.936;2022-12-07T01:04:15;99878.16;;;3.71;100.00
28310;BME280;15571;50.974;13.936;2022-12-07T01:07:19;99870.44;;;3.74;100.00
28310;BME280;15571;50.974;13.936;2022-12-07T01:10:23;99878.19;;;3.74;100.00
28310;BME280;15571;50.974;13.936;2022-12-07T01:13:25;99885.13;;;3.75;100.00
28310;BME280;15571;50.974;13.936;2022-12-07T01:16:29;99878.25;;;3.76;100.00
28310;BME280;15571;50.974;13.936;2022-12-07T01:19:32;99879.09;;;3.78;100.00
28310;BME280;15571;50.974;13.936;2022-12-07T01:22:36;99880.00;;;3.78;100.00
28310;BME280;15571;50.974;13.936;2022-12-07T01:25:41;99881.69;;;3.76;100.00
28310;BME280;15571;50.974;13.936;2022-12-07T01:28:44;99880.91;;;3.80;100.00
28310;BME280;15571;50.974;13.936;2022-12-07T01:31:48;99873.13;;;3.80;100.00
28310;BME280;15571;50.974;13.936;2022-12-07T01:34:51;99872.25;;;3.80;100.00
28310;BME280;15571;50.974;13.936;2022-12-07T01:37:56;99871.41;;;3.82;100.00
28310;BME280;15571;50.974;13.936;2022-12-07T01:41:00;99868.81;;;3.82;100.00
28310;BME280;15571;50.974;13.936;2022-12-07T01:44:16;99871.41;;;3.82;100.00
28310;BME280;15571;50.974;13.936;2022-12-07T01:47:19;99867.97;;;3.83;100.00
28310;BME280;15571;50.974;13.936;2022-12-07T01:50:21;99868.88;;;3.84;100.00
28310;BME280;15571;50.974;13.936;2022-12-07T01:53:26;99870.63;;;3.85;100.00
28310;BME280;15571;50.974;13.936;2022-12-07T01:56:31;99869.72;;;3.84;100.00
28310;BME280;15571;50.974;13.936;2022-12-07T01:59:34;99863.69;;;3.84;100.00
28310;BME280;15571;50.974;13.936;2022-12-07T02:02:41;99868.94;;;3.87;100.00
28310;BME280;15571;50.974;13.936;2022-12-07T02:05:45;99859.44;;;3.87;100.00
28310;BME280;15571;50.974;13.936;2022-12-07T02:08:48;99864.63;;;3.87;100.00
28310;BME280;15571;50.974;13.936;2022-12-07T02:11:57;99864.63;;;3.87;100.00
28310;BME280;15571;50.974;13.936;2022-12-07T02:15:02;99858.53;;;3.85;100.00
28310;BME280;15571;50.974;13.936;2022-12-07T02:18:05;99855.94;;;3.85;100.00
28310;BME280;15571;50.974;13.936;2022-12-07T02:21:10;99857.63;;;3.83;100.00
28310;BME280;15571;50.974;13.936;2022-12-07T02:24:19;99852.44;;;3.83;100.00
28310;BME280;15571;50.974;13.936;2022-12-07T02:27:39;99850.69;;;3.82;100.00
28310;BME280;15571;50.974;13.936;2022-12-07T02:30:47;99856.72;;;3.80;100.00
28310;BME280;15571;50.974;13.936;2022-12-07T02:33:54;99848.03;;;3.78;100.00
28310;BME280;15571;50.974;13.936;2022-12-07T02:37:00;99848.94;;;3.78;100.00
28310;BME280;15571;50.974;13.936;2022-12-07T02:40:05;99852.34;;;3.77;100.00
28310;BME280;15571;50.974;13.936;2022-12-07T02:43:13;99854.94;;;3.77;100.00
28310;BME280;15571;50.974;13.936;2022-12-07T02:46:20;99860.13;;;3.76;100.00
28310;BME280;15571;50.974;13.936;2022-12-07T02:49:23;99851.44;;;3.73;100.00
28310;BME280;15571;50.974;13.936;2022-12-07T02:52:28;99852.31;;;3.74;100.00
28310;BME280;15571;50.974;13.936;2022-12-07T02:55:32;99851.44;;;3.73;100.00
28310;BME280;15571;50.974;13.936;2022-12-07T02:58:43;99833.31;;;3.72;100.00
28310;BME280;15571;50.974;13.936;2022-12-07T03:01:53;99829.00;;;3.72;100.00
28310;BME280;15571;50.974;13.936;2022-12-07T03:05:01;99828.13;;;3.72;100.00
28310;BME280;15571;50.974;13.936;2022-12-07T03:08:07;99828.97;;;3.71;100.00
28310;BME280;15571;50.974;13.936;2022-12-07T03:11:13;99828.94;;;3.69;100.00
28310;BME280;15571;50.974;13.936;2022-12-07T03:14:17;99819.41;;;3.68;100.00
28310;BME280;15571;50.974;13.936;2022-12-07T03:17:23;99823.75;;;3.68;100.00
28310;BME280;15571;50.974;13.936;2022-12-07T03:20:26;99814.22;;;3.67;100.00
28310;BME280;15571;50.974;13.936;2022-12-07T03:23:29;99815.97;;;3.66;100.00
28310;BME280;15571;50.974;13.936;2022-12-07T03:26:38;99813.38;;;3.66;100.00
28310;BME280;15571;50.974;13.936;2022-12-07T03:29:41;99810.72;;;3.65;100.00
28310;BME280;15571;50.974;13.936;2022-12-07T03:32:48;99810.72;;;3.65;100.00
28310;BME280;15571;50.974;13.936;2022-12-07T03:36:04;99803.81;;;3.64;100.00
28310;BME280;15571;50.974;13.936;2022-12-07T03:39:11;99799.47;;;3.63;100.00
28310;BME280;15571;50.974;13.936;2022-12-07T03:42:15;99802.06;;;3.63;100.00
28310;BME280;15571;50.974;13.936;2022-12-07T03:45:17;99798.63;;;3.64;100.00
28310;BME280;15571;50.974;13.936;2022-12-07T03:48:22;99803.81;;;3.64;100.00
28310;BME280;15571;50.974;13.936;2022-12-07T03:51:28;99797.78;;;3.63;100.00
28310;BME280;15571;50.974;13.936;2022-12-07T03:54:34;99801.22;;;3.62;100.00
28310;BME280;15571;50.974;13.936;2022-12-07T03:57:39;99798.59;;;3.61;100.00
28310;BME280;15571;50.974;13.936;2022-12-07T04:00:49;99795.97;;;3.59;100.00
28310;BME280;15571;50.974;13.936;2022-12-07T04:03:54;99798.56;;;3.57;100.00
28310;BME280;15571;50.974;13.936;2022-12-07T04:06:57;99796.81;;;3.58;100.00
28310;BME280;15571;50.974;13.936;2022-12-07T04:10:04;99796.81;;;3.58;100.00
28310;BME280;15571;50.974;13.936;2022-12-07T04:13:08;99794.28;;;3.60;100.00
28310;BME280;15571;50.974;13.936;2022-12-07T04:16:10;99789.97;;;3.60;100.00
28310;BME280;15571;50.974;13.936;2022-12-07T04:19:14;99777.91;;;3.61;100.00
28310;BME280;15571;50.974;13.936;2022-12-07T04:22:16;99783.94;;;3.61;100.00
28310;BME280;15571;50.974;13.936;2022-12-07T04:25:18;99774.41;;;3.58;100.00
28310;BME280;15571;50.974;13.936;2022-12-07T04:28:20;99782.19;;;3.60;100.00
28310;BME280;15571;50.974;13.936;2022-12-07T04:31:22;99781.34;;;3.60;100.00
28310;BME280;15571;50.974;13.936;2022-12-07T04:34:26;99778.75;;;3.60;100.00
28310;BME280;15571;50.974;13.936;2022-12-07T04:37:28;99783.03;;;3.57;100.00
28310;BME280;15571;50.974;13.936;2022-12-07T04:40:30;99776.94;;;3.55;100.00
28310;BME280;15571;50.974;13.936;2022-12-07T04:43:32;99770.91;;;3.55;100.00
28310;BME280;15571;50.974;13.936;2022-12-07T04:46:34;99768.34;;;3.56;100.00
28310;BME280;15571;50.974;13.936;2022-12-07T04:49:38;99760.56;;;3.56;100.00
28310;BME280;15571;50.974;13.936;2022-12-07T04:52:40;99759.72;;;3.56;100.00
28310;BME280;15571;50.974;13.936;2022-12-07T04:55:42;99755.34;;;3.53;100.00
28310;BME280;15571;50.974;13.936;2022-12-07T04:58:45;99751.88;;;3.51;100.00
28310;BME280;15571;50.974;13.936;2022-12-07T05:01:58;99739.75;;;3.49;100.00
28310;BME280;15571;50.974;13.936;2022-12-07T05:05:02;99730.22;;;3.45;100.00
28310;BME280;15571;50.974;13.936;2022-12-07T05:08:06;99734.47;;;3.41;100.00
28310;BME280;15571;50.974;13.936;2022-12-07T05:11:08;99726.66;;;3.38;100.00
28310;BME280;15571;50.974;13.936;2022-12-07T05:14:30;99730.91;;;3.33;100.00
28310;BME280;15571;50.974;13.936;2022-12-07T05:17:32;99723.06;;;3.28;100.00
28310;BME280;15571;50.974;13.936;2022-12-07T05:20:36;99732.47;;;3.24;100.00
28310;BME280;15571;50.974;13.936;2022-12-07T05:23:38;99727.22;;;3.20;100.00
28310;BME280;15571;50.974;13.936;2022-12-07T05:26:40;99733.19;;;3.16;100.00
28310;BME280;15571;50.974;13.936;2022-12-07T05:29:42;99727.09;;;3.12;100.00
28310;BME280;15571;50.974;13.936;2022-12-07T05:32:44;99727.03;;;3.09;100.00
28310;BME280;15571;50.974;13.936;2022-12-07T05:35:48;99720.97;;;3.05;100.00
28310;BME280;15571;50.974;13.936;2022-12-07T05:38:53;99722.63;;;3.02;100.00
28310;BME280;15571;50.974;13.936;2022-12-07T05:41:55;99716.53;;;2.98;100.00
28310;BME280;15571;50.974;13.936;2022-12-07T05:45:13;99714.81;;;2.99;100.00
28310;BME280;15571;50.974;13.936;2022-12-07T05:48:16;99709.63;;;2.99;100.00
28310;BME280;15571;50.974;13.936;2022-12-07T05:51:20;99713.13;;;3.01;100.00
28310;BME280;15571;50.974;13.936;2022-12-07T05:54:22;99711.44;;;3.03;100.00
28310;BME280;15571;50.974;13.936;2022-12-07T05:57:25;99704.56;;;3.05;100.00
28310;BME280;15571;50.974;13.936;2022-12-07T06:00:27;99699.44;;;3.08;100.00
28310;BME280;15571;50.974;13.936;2022-12-07T06:03:28;99692.59;;;3.10;100.00
28310;BME280;15571;50.974;13.936;2022-12-07T06:06:32;99689.16;;;3.11;100.00
28310;BME280;15571;50.974;13.936;2022-12-07T06:09:34;99688.31;;;3.12;100.00
28310;BME280;15571;50.974;13.936;2022-12-07T06:12:37;99689.22;;;3.16;100.00
28310;BME280;15571;50.974;13.936;2022-12-07T06:15:40;99690.97;;;3.18;100.00
28310;BME280;15571;50.974;13.936;2022-12-07T06:18:42;99688.38;;;3.17;100.00
28310;BME280;15571;50.974;13.936;2022-12-07T06:21:49;99686.66;;;3.19;100.00
28310;BME280;15571;50.974;13.936;2022-12-07T06:24:54;99693.59;;;3.20;100.00
28310;BME280;15571;50.974;13.936;2022-12-07T06:27:59;99691.91;;;3.22;100.00
28310;BME280;15571;50.974;13.936;2022-12-07T06:31:01;99684.16;;;3.23;100.00
28310;BME280;15571;50.974;13.936;2022-12-07T06:34:04;99682.47;;;3.25;100.00
28310;BME280;15571;50.974;13.936;2022-12-07T06:37:08;99687.69;;;3.29;100.00
28310;BME280;15571;50.974;13.936;2022-12-07T06:40:10;99683.44;;;3.31;100.00
28310;BME280;15571;50.974;13.936;2022-12-07T06:43:16;99681.75;;;3.34;100.00
28310;BME280;15571;50.974;13.936;2022-12-07T06:46:18;99677.47;;;3.36;100.00
28310;BME280;15571;50.974;13.936;2022-12-07T06:49:22;99687.84;;;3.38;100.00
28310;BME280;15571;50.974;13.936;2022-12-07T06:52:26;99687.00;;;3.39;100.00
28310;BME280;15571;50.974;13.936;2022-12-07T06:55:31;99691.31;;;3.40;100.00
28310;BME280;15571;50.974;13.936;2022-12-07T06:58:43;99684.41;;;3.39;100.00
28310;BME280;15571;50.974;13.936;2022-12-07T07:01:48;99687.84;;;3.38;100.00
28310;BME280;15571;50.974;13.936;2022-12-07T07:04:50;99679.19;;;3.36;100.00
28310;BME280;15571;50.974;13.936;2022-12-07T07:07:54;99685.25;;;3.38;100.00
28310;BME280;15571;50.974;13.936;2022-12-07T07:10:57;99684.41;;;3.39;100.00
28310;BME280;15571;50.974;13.936;2022-12-07T07:13:59;99687.00;;;3.40;100.00
28310;BME280;15571;50.974;13.936;2022-12-07T07:17:02;99677.53;;;3.41;100.00
28310;BME280;15571;50.974;13.936;2022-12-07T07:20:09;99685.31;;;3.44;100.00
28310;BME280;15571;50.974;13.936;2022-12-07T07:23:22;99687.06;;;3.43;100.00
28310;BME280;15571;50.974;13.936;2022-12-07T07:26:24;99686.22;;;3.46;100.00
28310;BME280;15571;50.974;13.936;2022-12-07T07:29:26;99687.97;;;3.47;100.00
28310;BME280;15571;50.974;13.936;2022-12-07T07:32:28;99686.28;;;3.49;100.00
28310;BME280;15571;50.974;13.936;2022-12-07T07:35:31;99690.63;;;3.50;100.00
28310;BME280;15571;50.974;13.936;2022-12-07T07:38:34;99691.50;;;3.52;100.00
28310;BME280;15571;50.974;13.936;2022-12-07T07:41:36;99715.66;;;3.51;100.00
28310;BME280;15571;50.974;13.936;2022-12-07T07:44:39;99700.06;;;3.48;100.00
28310;BME280;15571;50.974;13.936;2022-12-07T07:47:41;99694.03;;;3.49;100.00
28310;BME280;15571;50.974;13.936;2022-12-07T07:50:43;99693.19;;;3.50;100.00
28310;BME280;15571;50.974;13.936;2022-12-07T07:53:48;99702.72;;;3.51;100.00
28310;BME280;15571;50.974;13.936;2022-12-07T07:56:50;99700.13;;;3.51;100.00
28310;BME280;15571;50.974;13.936;2022-12-07T07:59:52;99707.88;;;3.51;100.00
28310;BME280;15571;50.974;13.936;2022-12-07T08:02:54;99700.13;;;3.51;100.00
28310;BME280;15571;50.974;13.936;2022-12-07T08:05:56;99704.44;;;3.52;100.00
28310;BME280;15571;50.974;13.936;2022-12-07T08:09:00;99698.41;;;3.53;100.00
28310;BME280;15571;50.974;13.936;2022-12-07T08:12:19;99706.16;;;3.53;100.00
28310;BME280;15571;50.974;13.936;2022-12-07T08:15:29;99705.31;;;3.54;100.00
28310;BME280;15571;50.974;13.936;2022-12-07T08:18:36;99706.22;;;3.56;100.00
28310;BME280;15571;50.974;13.936;2022-12-07T08:21:41;99707.13;;;3.58;100.00
28310;BME280;15571;50.974;13.936;2022-12-07T08:24:45;99698.50;;;3.60;100.00
28310;BME280;15571;50.974;13.936;2022-12-07T08:27:49;99712.31;;;3.60;100.00
28310;BME280;15571;50.974;13.936;2022-12-07T08:30:58;99700.19;;;3.57;100.00
28310;BME280;15571;50.974;13.936;2022-12-07T08:34:00;99695.94;;;3.61;100.00
28310;BME280;15571;50.974;13.936;2022-12-07T08:37:02;99702.88;;;3.64;100.00
28310;BME280;15571;50.974;13.936;2022-12-07T08:40:11;99702.06;;;3.68;100.00
28310;BME280;15571;50.974;13.936;2022-12-07T08:43:15;99698.69;;;3.72;100.00
28310;BME280;15571;50.974;13.936;2022-12-07T08:46:18;99707.31;;;3.74;100.00
28310;BME280;15571;50.974;13.936;2022-12-07T08:49:22;99705.63;;;3.76;100.00
28310;BME280;15571;50.974;13.936;2022-12-07T08:52:29;99699.63;;;3.77;100.00
28310;BME280;15571;50.974;13.936;2022-12-07T08:55:36;99698.81;;;3.81;100.00
28310;BME280;15571;50.974;13.936;2022-12-07T08:58:38;99704.00;;;3.84;100.00
28310;BME280;15571;50.974;13.936;2022-12-07T09:01:40;99696.31;;;3.89;100.00
28310;BME280;15571;50.974;13.936;2022-12-07T09:04:42;99698.97;;;3.94;100.00
28310;BME280;15571;50.974;13.936;2022-12-07T09:07:46;99705.03;;;3.97;100.00
28310;BME280;15571;50.974;13.936;2022-12-07T09:10:54;99707.69;;;4.02;100.00
28310;BME280;15571;50.974;13.936;2022-12-07T09:13:56;99703.41;;;4.02;100.00
28310;BME280;15571;50.974;13.936;2022-12-07T09:17:04;99700.03;;;4.08;100.00
28310;BME280;15571;50.974;13.936;2022-12-07T09:20:08;99711.22;;;4.07;100.00
28310;BME280;15571;50.974;13.936;2022-12-07T09:23:10;99701.75;;;4.09;100.00
28310;BME280;15571;50.974;13.936;2022-12-07T09:26:17;99701.81;;;4.14;100.00
28310;BME280;15571;50.974;13.936;2022-12-07T09:29:21;99695.81;;;4.18;100.00
28310;BME280;15571;50.974;13.936;2022-12-07T09:32:27;99694.09;;;4.18;100.00
28310;BME280;15571;50.974;13.936;2022-12-07T09:35:29;99699.34;;;4.25;100.00
28310;BME280;15571;50.974;13.936;2022-12-07T09:38:31;99694.22;;;4.28;100.00
28310;BME280;15571;50.974;13.936;2022-12-07T09:41:34;99691.66;;;4.31;100.00
28310;BME280;15571;50.974;13.936;2022-12-07T09:44:39;99696.84;;;4.34;100.00
28310;BME280;15571;50.974;13.936;2022-12-07T09:47:42;99695.19;;;4.39;100.00
28310;BME280;15571;50.974;13.936;2022-12-07T09:50:44;99694.34;;;4.42;100.00
28310;BME280;15571;50.974;13.936;2022-12-07T09:53:47;99692.66;;;4.47;100.00
28310;BME280;15571;50.974;13.936;2022-12-07T09:56:51;99695.31;;;4.48;100.00
28310;BME280;15571;50.974;13.936;2022-12-07T09:59:54;99690.91;;;4.43;100.00
28310;BME280;15571;50.974;13.936;2022-12-07T10:02:58;99689.22;;;4.48;100.00
28310;BME280;15571;50.974;13.936;2022-12-07T10:06:01;99691.88;;;4.51;100.00
28310;BME280;15571;50.974;13.936;2022-12-07T10:09:08;99684.97;;;4.55;100.00
28310;BME280;15571;50.974;13.936;2022-12-07T10:12:12;99682.41;;;4.56;100.00
28310;BME280;15571;50.974;13.936;2022-12-07T10:15:17;99679.00;;;4.59;100.00
28310;BME280;15571;50.974;13.936;2022-12-07T10:18:29;99668.63;;;4.59;100.00
28310;BME280;15571;50.974;13.936;2022-12-07T10:21:33;99675.56;;;4.63;100.00
28310;BME280;15571;50.974;13.936;2022-12-07T10:24:35;99670.44;;;4.69;100.00
28310;BME280;15571;50.974;13.936;2022-12-07T10:27:42;99665.34;;;4.78;100.00
28310;BME280;15571;50.974;13.936;2022-12-07T10:30:52;99664.53;;;4.87;100.00
28310;BME280;15571;50.974;13.936;2022-12-07T10:33:58;99677.56;;;4.92;100.00
28310;BME280;15571;50.974;13.936;2022-12-07T10:40:25;99670.69;;;4.97;100.00
28310;BME280;15571;50.974;13.936;2022-12-07T10:43:29;99669.84;;;4.99;100.00
28310;BME280;15571;50.974;13.936;2022-12-07T10:49:58;99656.91;;;5.03;100.00
28310;BME280;15571;50.974;13.936;2022-12-07T10:53:16;99649.97;;;5.03;100.00
28310;BME280;15571;50.974;13.936;2022-12-07T10:56:35;99653.44;;;5.02;100.00
28310;BME280;15571;50.974;13.936;2022-12-07T10:59:44;99660.41;;;5.06;100.00
28310;BME280;15571;50.974;13.936;2022-12-07T11:06:14;99658.63;;;5.02;100.00
28310;BME280;15571;50.974;13.936;2022-12-07T11:09:25;99642.22;;;5.08;100.00
28310;BME280;15571;50.974;13.936;2022-12-07T11:12:38;99641.34;;;5.04;100.00
28310;BME280;15571;50.974;13.936;2022-12-07T11:15:50;99641.31;;;5.01;100.00
28310;BME280;15571;50.974;13.936;2022-12-07T11:22:20;99637.88;;;5.02;100.00
28310;BME280;15571;50.974;13.936;2022-12-07T11:25:26;99633.56;;;5.04;100.00
28310;BME280;15571;50.974;13.936;2022-12-07T11:28:39;99631.00;;;5.07;100.00
28310;BME280;15571;50.974;13.936;2022-12-07T11:31:50;99631.88;;;5.11;100.00
28310;BME280;15571;50.974;13.936;2022-12-07T11:35:01;99626.69;;;5.11;100.00
28310;BME280;15571;50.974;13.936;2022-12-07T11:38:14;99619.81;;;5.14;100.00
28310;BME280;15571;50.974;13.936;2022-12-07T11:41:20;99618.06;;;5.15;100.00
28310;BME280;15571;50.974;13.936;2022-12-07T11:44:30;99610.31;;;5.17;100.00
28310;BME280;15571;50.974;13.936;2022-12-07T11:47:38;99612.06;;;5.18;100.00
28310;BME280;15571;50.974;13.936;2022-12-07T11:50:46;99620.69;;;5.20;100.00
28310;BME280;15571;50.974;13.936;2022-12-07T11:53:54;99623.28;;;5.18;100.00
28310;BME280;15571;50.974;13.936;2022-12-07T11:57:01;99628.47;;;5.17;100.00
28310;BME280;15571;50.974;13.936;2022-12-07T12:00:06;99632.78;;;5.14;100.00
28310;BME280;15571;50.974;13.936;2022-12-07T12:03:17;99625.84;;;5.13;100.00
28310;BME280;15571;50.974;13.936;2022-12-07T12:06:23;99620.63;;;5.10;100.00
28310;BME280;15571;50.974;13.936;2022-12-07T12:09:29;99621.47;;;5.06;100.00
28310;BME280;15571;50.974;13.936;2022-12-07T12:12:43;99615.44;;;5.07;100.00
28310;BME280;15571;50.974;13.936;2022-12-07T12:15:52;99610.22;;;5.04;100.00
28310;BME280;15571;50.974;13.936;2022-12-07T16:54:31;99604.00;;;3.93;100.00
28310;BME280;15571;50.974;13.936;2022-12-07T16:57:36;99601.41;;;3.93;100.00
28310;BME280;15571;50.974;13.936;2022-12-07T17:00:39;99597.94;;;3.91;100.00
28310;BME280;15571;50.974;13.936;2022-12-07T17:03:41;99603.97;;;3.89;100.00
28310;BME280;15571;50.974;13.936;2022-12-07T17:06:43;99604.81;;;3.88;100.00
28310;BME280;15571;50.974;13.936;2022-12-07T17:09:46;99596.16;;;3.88;100.00
28310;BME280;15571;50.974;13.936;2022-12-07T17:12:49;99603.97;;;3.89;100.00
28310;BME280;15571;50.974;13.936;2022-12-07T17:15:55;99604.84;;;3.90;100.00
28310;BME280;15571;50.974;13.936;2022-12-07T17:18:59;99602.28;;;3.92;100.00
28310;BME280;15571;50.974;13.936;2022-12-07T17:22:01;99600.53;;;3.91;100.00
28310;BME280;15571;50.974;13.936;2022-12-07T17:25:07;99604.88;;;3.92;100.00
28310;BME280;15571;50.974;13.936;2022-12-07T17:28:13;99610.91;;;3.92;100.00
28310;BME280;15571;50.974;13.936;2022-12-07T17:31:16;99611.75;;;3.93;100.00
28310;BME280;15571;50.974;13.936;2022-12-07T17:34:18;99608.31;;;3.94;100.00
28310;BME280;15571;50.974;13.936;2022-12-07T17:37:21;99613.53;;;3.95;100.00
28310;BME280;15571;50.974;13.936;2022-12-07T17:40:24;99605.78;;;3.97;100.00
28310;BME280;15571;50.974;13.936;2022-12-07T17:43:26;99616.13;;;3.97;100.00
28310;BME280;15571;50.974;13.936;2022-12-07T17:46:28;99612.69;;;3.98;100.00
28310;BME280;15571;50.974;13.936;2022-12-07T17:49:30;99618.72;;;3.98;100.00
28310;BME280;15571;50.974;13.936;2022-12-07T17:52:33;99614.41;;;3.96;100.00
28310;BME280;15571;50.974;13.936;2022-12-07T17:55:53;99609.22;;;3.96;100.00
28310;BME280;15571;50.974;13.936;2022-12-07T17:58:57;99621.31;;;3.97;100.00
28310;BME280;15571;50.974;13.936;2022-12-07T18:02:01;99618.72;;;3.98;100.00
28310;BME280;15571;50.974;13.936;2022-12-07T18:05:03;99612.69;;;3.98;100.00
28310;BME280;15571;50.974;13.936;2022-12-07T18:08:08;99614.44;;;3.99;100.00
28310;BME280;15571;50.974;13.936;2022-12-07T18:11:14;99616.19;;;4.00;100.00
28310;BME280;15571;50.974;13.936;2022-12-07T18:14:18;99617.03;;;3.99;100.00
28310;BME280;15571;50.974;13.936;2022-12-07T18:17:20;99611.84;;;4.00;100.00
28310;BME280;15571;50.974;13.936;2022-12-07T18:20:29;99609.25;;;3.99;100.00
28310;BME280;15571;50.974;13.936;2022-12-07T18:23:31;99607.53;;;3.99;100.00
28310;BME280;15571;50.974;13.936;2022-12-07T18:26:35;99612.75;;;4.01;100.00
28310;BME280;15571;50.974;13.936;2022-12-07T18:29:37;99615.34;;;4.02;100.00
28310;BME280;15571;50.974;13.936;2022-12-07T18:32:39;99617.03;;;4.02;100.00
28310;BME280;15571;50.974;13.936;2022-12-07T18:35:43;99613.59;;;4.00;100.00
28310;BME280;15571;50.974;13.936;2022-12-07T18:38:45;99618.78;;;4.00;100.00
28310;BME280;15571;50.974;13.936;2022-12-07T18:41:52;99623.06;;;3.98;100.00
28310;BME280;15571;50.974;13.936;2022-12-07T18:44:56;99622.16;;;3.97;100.00
28310;BME280;15571;50.974;13.936;2022-12-07T18:47:58;99623.06;;;3.98;100.00
28310;BME280;15571;50.974;13.936;2022-12-07T18:51:01;99623.94;;;4.00;100.00
28310;BME280;15571;50.974;13.936;2022-12-07T18:54:07;99617.88;;;3.99;100.00
28310;BME280;15571;50.974;13.936;2022-12-07T18:57:14;99623.94;;;4.00;100.00
28310;BME280;15571;50.974;13.936;2022-12-07T19:00:19;99624.78;;;3.99;100.00
28310;BME280;15571;50.974;13.936;2022-12-07T19:03:22;99614.44;;;3.99;100.00
28310;BME280;15571;50.974;13.936;2022-12-07T19:06:26;99614.44;;;3.99;100.00
28310;BME280;15571;50.974;13.936;2022-12-07T19:09:30;99619.63;;;3.99;100.00
28310;BME280;15571;50.974;13.936;2022-12-07T19:12:35;99627.34;;;3.97;100.00
28310;BME280;15571;50.974;13.936;2022-12-07T19:15:38;99626.50;;;3.97;100.00
28310;BME280;15571;50.974;13.936;2022-12-07T19:18:40;99619.56;;;3.96;100.00
28310;BME280;15571;50.974;13.936;2022-12-07T19:21:44;99627.34;;;3.96;100.00
